Island Venture — WDG3765 — position and weather

sailwx.info

Track history (hours):
 
Tides and Currents Weather Stations Pressure Air Temp Water Temp Dewpoint Dewpoint Depression Visibility Wind Speed Wind Dir Waves Ship Positions

Island Venture

Owner: Island Tug and Barge, Seattle, WA. More information available from US FCC via Universal Licensing System and Coast Guard Vessel Documentation Center.

Last reported at 2017-Jun-26 22:30 UTC. Time now 2017-Jun-26 22:29 UTC.
Position N 47°34' W 122°21'.

MMSI: 367529420.

Date/timePositionNaut miles runAvg speedWind from/ knotsBaromVisibWave heightAir tempDewpointWater temp
2017-Jun-26 22:30N 47°34' W 122°21'0 0.7
2017-Jun-26 22:00N 47°34' W 122°21'0 0.0
2017-Jun-26 21:30N 47°34' W 122°21'0 0.2
2017-Jun-26 21:00N 47°34' W 122°21'0 0.9
2017-Jun-26 20:30N 47°34' W 122°21'2 3.7
2017-Jun-26 20:00N 47°36' W 122°23'3 5.1
2017-Jun-26 19:30N 47°35' W 122°26'3 5.2
2017-Jun-26 19:00N 47°32' W 122°28'4 8.0
2017-Jun-26 18:30N 47°29' W 122°30'4 8.0
2017-Jun-26 18:00N 47°25' W 122°32'4 7.3
2017-Jun-26 17:30N 47°21' W 122°32'5 9.5
2017-Jun-26 17:00N 47°17' W 122°33'5 9.1
2017-Jun-26 16:30N 47°12' W 122°36'3 6.6
2017-Jun-26 16:00N 47°10' W 122°39'2 0.3
2017-Jun-26 09:49N 47°11' W 122°37'1 2.5
2017-Jun-26 09:30N 47°11' W 122°38'3 3.9
2017-Jun-26 08:49N 47°08' W 122°40'8 3.7
2017-Jun-26 06:35N 47°16' W 122°33'1 3.7
2017-Jun-26 06:24N 47°16' W 122°33'1 3.2
2017-Jun-26 05:58N 47°18' W 122°33'2 4.2
2017-Jun-26 05:30N 47°19' W 122°33'3 6.1
2017-Jun-26 05:00N 47°22' W 122°32'3 6.2
2017-Jun-26 04:30N 47°26' W 122°32'3 6.3
2017-Jun-26 04:00N 47°29' W 122°31'4 7.8
2017-Jun-26 03:30N 47°32' W 122°28'4 8.5
2017-Jun-26 03:00N 47°35' W 122°24'2 4.4
2017-Jun-26 02:30N 47°34' W 122°22'0 0.3
2017-Jun-26 02:00N 47°34' W 122°21'0 0.0
2017-Jun-26 01:30N 47°34' W 122°21'0 0.3
2017-Jun-26 01:00N 47°34' W 122°22'0 0.1
2017-Jun-26 00:30N 47°34' W 122°21'1 1.4
2017-Jun-26 00:00N 47°34' W 122°21'0 0.1
2017-Jun-25 23:30N 47°34' W 122°21'1 1.4
2017-Jun-25 23:00N 47°34' W 122°21'0 0.0
2017-Jun-25 22:30N 47°34' W 122°21'0 0.0
2017-Jun-25 22:00N 47°34' W 122°21'0 0.0
2017-Jun-25 21:30N 47°34' W 122°21'0 0.0
2017-Jun-25 21:00N 47°34' W 122°21'0 0.0
2017-Jun-25 20:30N 47°34' W 122°21'0 0.0
2017-Jun-25 20:00N 47°34' W 122°21'0 0.0
2017-Jun-25 19:30N 47°34' W 122°21'0 0.0
2017-Jun-25 19:00N 47°34' W 122°21'1 1.2
2017-Jun-25 18:30N 47°35' W 122°22'0 1.0
2017-Jun-25 18:00N 47°34' W 122°21'2 3.7
2017-Jun-25 17:30N 47°33' W 122°20'1 2.7
2017-Jun-25 17:00N 47°34' W 122°21'0 0.0
2017-Jun-25 16:31N 47°34' W 122°21'0 0.7
2017-Jun-25 16:00N 47°34' W 122°21'1 1.4
2017-Jun-25 15:30N 47°34' W 122°21'0 0.0
2017-Jun-25 15:00N 47°34' W 122°21'0 0.0
2017-Jun-25 14:30N 47°34' W 122°21'0 0.0
2017-Jun-23 14:44N 47°34' W 122°21'0 0.5
2017-Jun-23 14:00N 47°34' W 122°21'0 0.6
2017-Jun-23 13:30N 47°34' W 122°21'0 0.1
2017-Jun-23 13:00N 47°34' W 122°21'2 4.0
2017-Jun-23 12:30N 47°36' W 122°22'1 1.3
2017-Jun-23 12:00N 47°36' W 122°23'1 1.7
2017-Jun-23 11:30N 47°35' W 122°22'0 0.0
2017-Jun-23 11:00N 47°35' W 122°22'0 0.0
2017-Jun-23 10:30N 47°35' W 122°22'1 1.1
2017-Jun-23 10:00N 47°35' W 122°22'1 1.9
2017-Jun-23 09:30N 47°34' W 122°21'1 1.2
2017-Jun-23 09:00N 47°34' W 122°21'0 0.0
2017-Jun-23 08:30N 47°34' W 122°21'0 0.0
2017-Jun-23 08:00N 47°34' W 122°21'0 0.0
2017-Jun-23 07:30N 47°34' W 122°21'0 0.0
2017-Jun-23 07:01N 47°34' W 122°21'0 0.0
2017-Jun-23 06:30N 47°34' W 122°21'0 0.0
2017-Jun-23 06:00N 47°34' W 122°21'0 0.0
2017-Jun-23 05:30N 47°34' W 122°21'0 0.0
2017-Jun-23 05:00N 47°34' W 122°21'1 1.1
2017-Jun-23 04:30N 47°34' W 122°21'2 4.5
2017-Jun-23 04:00N 47°36' W 122°23'3 5.7
2017-Jun-23 03:31N 47°34' W 122°26'3 6.2
2017-Jun-23 03:00N 47°31' W 122°28'3 6.5
2017-Jun-23 02:30N 47°29' W 122°31'3 6.6
2017-Jun-23 02:00N 47°25' W 122°32'3 6.5
2017-Jun-23 01:30N 47°22' W 122°32'3 6.5
2017-Jun-23 01:00N 47°19' W 122°33'3 6.0
2017-Jun-23 00:30N 47°16' W 122°34'3 5.9
2017-Jun-23 00:00N 47°13' W 122°36'6 2.5
2017-Jun-22 21:42N 47°08' W 122°39'0 0.0
2017-Jun-22 21:16N 47°08' W 122°39'0 0.0
2017-Jun-22 20:46N 47°08' W 122°39'0 0.0
2017-Jun-22 20:28N 47°08' W 122°39'0 0.0
2017-Jun-22 20:00N 47°08' W 122°39'2 0.9
2017-Jun-22 17:58N 47°10' W 122°39'3 5.4
2017-Jun-22 17:22N 47°12' W 122°36'3 5.7
2017-Jun-22 16:48N 47°15' W 122°34'1 3.7
2017-Jun-22 16:30N 47°16' W 122°33'1 2.9
2017-Jun-22 16:00N 47°18' W 122°33'2 3.9
2017-Jun-22 15:30N 47°19' W 122°34'1 2.6
2017-Jun-22 15:00N 47°21' W 122°33'3 5.5
2017-Jun-22 14:30N 47°23' W 122°32'6 6.0
2017-Jun-22 13:30N 47°29' W 122°30'3 6.5
2017-Jun-22 13:00N 47°32' W 122°28'4 8.1
2017-Jun-22 12:30N 47°35' W 122°25'2 5.0
2017-Jun-22 12:00N 47°34' W 122°21'0 1.0
2017-Jun-22 11:31N 47°34' W 122°21'0 0.1
2017-Jun-22 11:00N 47°34' W 122°21'0 1.0
2017-Jun-22 10:30N 47°34' W 122°21'0 0.0
2017-Jun-22 10:00N 47°34' W 122°21'0 0.0
2017-Jun-22 09:30N 47°34' W 122°21'0 0.0
2017-Jun-22 09:00N 47°34' W 122°21'1 1.1
2017-Jun-22 08:30N 47°34' W 122°21'1 2.5
2017-Jun-22 08:00N 47°33' W 122°20'0 0.8
2017-Jun-22 07:31N 47°33' W 122°20'2 3.7
2017-Jun-22 07:00N 47°35' W 122°22'2 4.6
2017-Jun-22 06:30N 47°35' W 122°25'3 6.4
2017-Jun-22 06:00N 47°33' W 122°27'3 6.7
2017-Jun-22 05:30N 47°30' W 122°30'4 7.0
2017-Jun-22 05:00N 47°26' W 122°31'3 6.9
2017-Jun-22 04:30N 47°23' W 122°32'4 7.4
2017-Jun-22 04:00N 47°19' W 122°33'4 8.0
2017-Jun-22 03:30N 47°15' W 122°34'4 7.9
2017-Jun-22 03:00N 47°12' W 122°36'4 0.2
2017-Jun-21 06:50N 47°09' W 122°38'0 0.2
2017-Jun-21 06:30N 47°09' W 122°38'0 0.0
2017-Jun-21 05:59N 47°09' W 122°38'0 0.0
2017-Jun-21 05:30N 47°09' W 122°38'0 0.0
2017-Jun-21 04:58N 47°09' W 122°38'0 0.0
2017-Jun-21 04:30N 47°09' W 122°38'0 0.0
2017-Jun-21 04:00N 47°09' W 122°38'0 0.0
2017-Jun-21 03:30N 47°09' W 122°38'8 5.4
2017-Jun-21 02:03N 47°16' W 122°34'0 5.7
2017-Jun-21 01:59N 47°16' W 122°33'3 5.6
2017-Jun-21 01:29N 47°19' W 122°33'4 7.7
2017-Jun-21 01:00N 47°23' W 122°32'4 7.8
2017-Jun-21 00:30N 47°26' W 122°32'0 0.4
2017-Jun-21 00:00N 47°27' W 122°32'0 0.4
2017-Jun-20 23:30N 47°26' W 122°31'2 5.0
2017-Jun-20 23:00N 47°24' W 122°32'3 6.4
2017-Jun-20 22:30N 47°21' W 122°32'4 5.6
2017-Jun-20 21:46N 47°17' W 122°33'2 5.9
2017-Jun-20 21:30N 47°15' W 122°34'3 5.7
2017-Jun-20 20:59N 47°13' W 122°36'5 1.0
2017-Jun-20 15:56N 47°08' W 122°39'1 1.0
2017-Jun-20 15:21N 47°09' W 122°38'0 0.0
2017-Jun-20 15:00N 47°09' W 122°38'0 0.0
2017-Jun-20 14:29N 47°09' W 122°38'1 1.0
2017-Jun-20 13:08N 47°10' W 122°39'5 4.0
2017-Jun-20 11:50N 47°14' W 122°35'2 4.8
2017-Jun-20 11:29N 47°16' W 122°34'3 4.7
2017-Jun-20 10:51N 47°19' W 122°33'2 6.6
2017-Jun-20 10:30N 47°21' W 122°33'3 6.8
2017-Jun-20 10:00N 47°24' W 122°32'4 7.2
2017-Jun-20 09:30N 47°28' W 122°31'4 7.6
2017-Jun-20 09:01N 47°31' W 122°28'4 7.5
2017-Jun-20 08:30N 47°35' W 122°26'3 5.1
2017-Jun-20 08:00N 47°36' W 122°22'2 4.6
2017-Jun-20 07:30N 47°34' W 122°21'0 0.2
2017-Jun-20 07:00N 47°34' W 122°21'1 1.6
2017-Jun-20 06:30N 47°33' W 122°21'1 1.0
2017-Jun-20 06:00N 47°33' W 122°20'1 1.9
2017-Jun-20 05:30N 47°34' W 122°21'2 4.6
2017-Jun-20 05:00N 47°36' W 122°22'3 5.4
2017-Jun-20 04:30N 47°34' W 122°26'3 6.0
2017-Jun-20 04:00N 47°32' W 122°28'3 6.8
2017-Jun-20 03:30N 47°29' W 122°30'4 6.9
2017-Jun-20 03:00N 47°25' W 122°32'3 6.5
2017-Jun-20 02:30N 47°22' W 122°32'3 6.9
2017-Jun-20 02:00N 47°19' W 122°33'4 7.3
2017-Jun-20 01:30N 47°15' W 122°34'4 7.5
2017-Jun-20 01:00N 47°12' W 122°36'3 6.8
2017-Jun-20 00:30N 47°09' W 122°39'10 0.5
2017-Jun-19 03:14N 47°19' W 122°33'2 6.8
2017-Jun-19 02:59N 47°20' W 122°33'3 6.0
2017-Jun-19 02:30N 47°23' W 122°32'3 5.8
2017-Jun-19 02:00N 47°26' W 122°31'3 5.5
2017-Jun-19 01:30N 47°29' W 122°30'3 5.5
2017-Jun-19 01:00N 47°31' W 122°29'3 5.6
2017-Jun-19 00:30N 47°34' W 122°27'3 6.0
2017-Jun-19 00:00N 47°36' W 122°24'2 4.9
2017-Jun-18 23:30N 47°34' W 122°21'1 2.8
2017-Jun-18 22:59N 47°33' W 122°20'2 3.6
2017-Jun-18 22:30N 47°34' W 122°21'0 0.0
2017-Jun-18 22:00N 47°34' W 122°21'0 0.0
2017-Jun-18 21:30N 47°34' W 122°21'0 0.0
2017-Jun-18 21:01N 47°34' W 122°21'0 0.0
2017-Jun-18 20:30N 47°34' W 122°21'0 0.0
2017-Jun-18 20:00N 47°34' W 122°21'0 0.0
2017-Jun-18 19:30N 47°34' W 122°21'0 0.0
2017-Jun-18 19:00N 47°34' W 122°21'0 0.0
2017-Jun-18 18:30N 47°34' W 122°21'0 0.0
2017-Jun-18 18:00N 47°34' W 122°21'0 0.0
2017-Jun-18 17:30N 47°34' W 122°21'0 0.0
2017-Jun-18 17:00N 47°34' W 122°21'0 0.0
2017-Jun-18 16:30N 47°34' W 122°21'0 0.0
2017-Jun-18 16:00N 47°34' W 122°21'0 0.0
2017-Jun-18 15:30N 47°34' W 122°21'0 0.0
2017-Jun-18 15:00N 47°34' W 122°21'0 0.0
2017-Jun-18 14:00N 47°34' W 122°21'0 0.0
2017-Jun-18 13:30N 47°34' W 122°21'0 0.0
2017-Jun-18 13:00N 47°34' W 122°21'0 0.0
2017-Jun-18 12:30N 47°34' W 122°21'0 0.0
2017-Jun-18 12:00N 47°34' W 122°21'0 0.0
2017-Jun-18 11:30N 47°34' W 122°21'0 0.0
2017-Jun-18 11:00N 47°34' W 122°21'0 0.0
2017-Jun-18 10:30N 47°34' W 122°21'0 0.0
2017-Jun-18 10:00N 47°34' W 122°21'0 0.0
2017-Jun-18 09:30N 47°34' W 122°21'0 0.0
2017-Jun-18 09:00N 47°34' W 122°21'0 0.0
2017-Jun-18 08:30N 47°34' W 122°21'0 0.0
2017-Jun-18 08:00N 47°34' W 122°21'0 0.0
2017-Jun-18 07:30N 47°34' W 122°21'0 0.0
2017-Jun-18 07:00N 47°34' W 122°21'0 0.0
2017-Jun-18 06:30N 47°34' W 122°21'0 0.0
2017-Jun-18 06:00N 47°34' W 122°21'0 0.0
2017-Jun-18 05:30N 47°34' W 122°21'0 0.0
2017-Jun-18 05:00N 47°34' W 122°21'0 0.0
2017-Jun-18 04:30N 47°34' W 122°21'0 0.0
2017-Jun-18 04:00N 47°34' W 122°21'0 0.0
2017-Jun-18 03:30N 47°34' W 122°21'0 0.0
2017-Jun-18 03:00N 47°34' W 122°21'0 0.0
2017-Jun-18 02:30N 47°34' W 122°21'0 0.0
2017-Jun-18 02:00N 47°34' W 122°21'0 0.0
2017-Jun-18 01:30N 47°34' W 122°21'0 0.0
2017-Jun-18 01:00N 47°34' W 122°21'0 0.0
2017-Jun-18 00:30N 47°34' W 122°21'0 0.0
2017-Jun-18 00:00N 47°34' W 122°21'0 0.0
2017-Jun-17 23:30N 47°34' W 122°21'0 0.0
2017-Jun-17 23:00N 47°34' W 122°21'0 0.0
2017-Jun-17 22:30N 47°34' W 122°21'0 0.0
2017-Jun-17 22:00N 47°34' W 122°21'0 0.0
2017-Jun-17 21:30N 47°34' W 122°21'0 0.0
2017-Jun-17 21:00N 47°34' W 122°21'0 0.0
2017-Jun-17 20:30N 47°34' W 122°21'0 0.0
2017-Jun-17 20:00N 47°34' W 122°21'0 0.0
2017-Jun-17 19:30N 47°34' W 122°21'0 0.0
2017-Jun-17 19:00N 47°34' W 122°21'0 0.0
2017-Jun-17 18:30N 47°34' W 122°21'0 0.0
2017-Jun-17 18:00N 47°34' W 122°21'0 0.0
2017-Jun-17 17:30N 47°34' W 122°21'0 0.0
2017-Jun-17 17:00N 47°34' W 122°21'0 0.0
2017-Jun-17 16:30N 47°34' W 122°21'0 0.0
2017-Jun-17 16:00N 47°34' W 122°21'0 0.0
2017-Jun-17 15:30N 47°34' W 122°21'1 1.1
2017-Jun-17 15:00N 47°34' W 122°21'1 1.1
2017-Jun-17 14:31N 47°34' W 122°21'3 2.8
2017-Jun-17 13:30N 47°35' W 122°25'3 5.4
2017-Jun-17 13:00N 47°33' W 122°28'3 6.5
2017-Jun-17 12:30N 47°30' W 122°30'3 6.6
2017-Jun-17 12:00N 47°27' W 122°31'3 6.6
2017-Jun-17 11:29N 47°23' W 122°32'3 7.1
2017-Jun-17 11:00N 47°20' W 122°33'4 7.9
2017-Jun-17 10:30N 47°16' W 122°33'4 7.8
2017-Jun-17 10:00N 47°12' W 122°36'3 6.4
2017-Jun-17 09:30N 47°10' W 122°39'4 3.0
2017-Jun-17 08:04N 47°13' W 122°35'2 7.8
2017-Jun-17 07:50N 47°15' W 122°34'3 7.9
2017-Jun-17 07:28N 47°18' W 122°33'2 4.7
2017-Jun-17 07:00N 47°18' W 122°29'4 4.3
2017-Jun-17 06:09N 47°17' W 122°25'1 5.6
2017-Jun-17 05:55N 47°18' W 122°26'2 5.2
2017-Jun-17 05:30N 47°18' W 122°29'3 5.1
2017-Jun-17 05:00N 47°19' W 122°32'2 3.7
2017-Jun-17 04:24N 47°17' W 122°32'1 3.4
2017-Jun-17 04:00N 47°16' W 122°33'1 2.3
2017-Jun-17 03:27N 47°15' W 122°34'2 4.2
2017-Jun-17 02:56N 47°13' W 122°35'2 5.7
2017-Jun-17 02:30N 47°11' W 122°38'2 2.5
2017-Jun-17 01:33N 47°09' W 122°38'0 0.2
2017-Jun-17 01:30N 47°09' W 122°38'  
Track history (hours):
 
Tides and Currents Weather Stations Pressure Air Temp Water Temp Dewpoint Dewpoint Depression Visibility Wind Speed Wind Dir Waves Ship Positions

Island Venture

Owner: Island Tug and Barge, Seattle, WA. More information available from US FCC via Universal Licensing System and Coast Guard Vessel Documentation Center.

Last reported at 2017-Jun-26 22:30 UTC. Time now 2017-Jun-26 22:29 UTC.
Position N 47°34' W 122°21'.

MMSI: 367529420.

Date/timePositionNaut miles runAvg speedWind from/ knotsBaromVisibWave heightAir tempDewpointWater temp
2017-Jun-26 22:30N 47°34' W 122°21'0 0.7
2017-Jun-26 22:00N 47°34' W 122°21'0 0.0
2017-Jun-26 21:30N 47°34' W 122°21'0 0.2
2017-Jun-26 21:00N 47°34' W 122°21'0 0.9
2017-Jun-26 20:30N 47°34' W 122°21'2 3.7
2017-Jun-26 20:00N 47°36' W 122°23'3 5.1
2017-Jun-26 19:30N 47°35' W 122°26'3 5.2
2017-Jun-26 19:00N 47°32' W 122°28'4 8.0
2017-Jun-26 18:30N 47°29' W 122°30'4 8.0
2017-Jun-26 18:00N 47°25' W 122°32'4 7.3
2017-Jun-26 17:30N 47°21' W 122°32'5 9.5
2017-Jun-26 17:00N 47°17' W 122°33'5 9.1
2017-Jun-26 16:30N 47°12' W 122°36'3 6.6
2017-Jun-26 16:00N 47°10' W 122°39'2 0.3
2017-Jun-26 09:49N 47°11' W 122°37'1 2.5
2017-Jun-26 09:30N 47°11' W 122°38'3 3.9
2017-Jun-26 08:49N 47°08' W 122°40'8 3.7
2017-Jun-26 06:35N 47°16' W 122°33'1 3.7
2017-Jun-26 06:24N 47°16' W 122°33'1 3.2
2017-Jun-26 05:58N 47°18' W 122°33'2 4.2
2017-Jun-26 05:30N 47°19' W 122°33'3 6.1
2017-Jun-26 05:00N 47°22' W 122°32'3 6.2
2017-Jun-26 04:30N 47°26' W 122°32'3 6.3
2017-Jun-26 04:00N 47°29' W 122°31'4 7.8
2017-Jun-26 03:30N 47°32' W 122°28'4 8.5
2017-Jun-26 03:00N 47°35' W 122°24'2 4.4
2017-Jun-26 02:30N 47°34' W 122°22'0 0.3
2017-Jun-26 02:00N 47°34' W 122°21'0 0.0
2017-Jun-26 01:30N 47°34' W 122°21'0 0.3
2017-Jun-26 01:00N 47°34' W 122°22'0 0.1
2017-Jun-26 00:30N 47°34' W 122°21'1 1.4
2017-Jun-26 00:00N 47°34' W 122°21'0 0.1
2017-Jun-25 23:30N 47°34' W 122°21'1 1.4
2017-Jun-25 23:00N 47°34' W 122°21'0 0.0
2017-Jun-25 22:30N 47°34' W 122°21'0 0.0
2017-Jun-25 22:00N 47°34' W 122°21'0 0.0
2017-Jun-25 21:30N 47°34' W 122°21'0 0.0
2017-Jun-25 21:00N 47°34' W 122°21'0 0.0
2017-Jun-25 20:30N 47°34' W 122°21'0 0.0
2017-Jun-25 20:00N 47°34' W 122°21'0 0.0
2017-Jun-25 19:30N 47°34' W 122°21'0 0.0
2017-Jun-25 19:00N 47°34' W 122°21'1 1.2
2017-Jun-25 18:30N 47°35' W 122°22'0 1.0
2017-Jun-25 18:00N 47°34' W 122°21'2 3.7
2017-Jun-25 17:30N 47°33' W 122°20'1 2.7
2017-Jun-25 17:00N 47°34' W 122°21'0 0.0
2017-Jun-25 16:31N 47°34' W 122°21'0 0.7
2017-Jun-25 16:00N 47°34' W 122°21'1 1.4
2017-Jun-25 15:30N 47°34' W 122°21'0 0.0
2017-Jun-25 15:00N 47°34' W 122°21'0 0.0
2017-Jun-25 14:30N 47°34' W 122°21'0 0.0
2017-Jun-23 14:44N 47°34' W 122°21'0 0.5
2017-Jun-23 14:00N 47°34' W 122°21'0 0.6
2017-Jun-23 13:30N 47°34' W 122°21'0 0.1
2017-Jun-23 13:00N 47°34' W 122°21'2 4.0
2017-Jun-23 12:30N 47°36' W 122°22'1 1.3
2017-Jun-23 12:00N 47°36' W 122°23'1 1.7
2017-Jun-23 11:30N 47°35' W 122°22'0 0.0
2017-Jun-23 11:00N 47°35' W 122°22'0 0.0
2017-Jun-23 10:30N 47°35' W 122°22'1 1.1
2017-Jun-23 10:00N 47°35' W 122°22'1 1.9
2017-Jun-23 09:30N 47°34' W 122°21'1 1.2
2017-Jun-23 09:00N 47°34' W 122°21'0 0.0
2017-Jun-23 08:30N 47°34' W 122°21'0 0.0
2017-Jun-23 08:00N 47°34' W 122°21'0 0.0
2017-Jun-23 07:30N 47°34' W 122°21'0 0.0
2017-Jun-23 07:01N 47°34' W 122°21'0 0.0
2017-Jun-23 06:30N 47°34' W 122°21'0 0.0
2017-Jun-23 06:00N 47°34' W 122°21'0 0.0
2017-Jun-23 05:30N 47°34' W 122°21'0 0.0
2017-Jun-23 05:00N 47°34' W 122°21'1 1.1
2017-Jun-23 04:30N 47°34' W 122°21'2 4.5
2017-Jun-23 04:00N 47°36' W 122°23'3 5.7
2017-Jun-23 03:31N 47°34' W 122°26'3 6.2
2017-Jun-23 03:00N 47°31' W 122°28'3 6.5
2017-Jun-23 02:30N 47°29' W 122°31'3 6.6
2017-Jun-23 02:00N 47°25' W 122°32'3 6.5
2017-Jun-23 01:30N 47°22' W 122°32'3 6.5
2017-Jun-23 01:00N 47°19' W 122°33'3 6.0
2017-Jun-23 00:30N 47°16' W 122°34'3 5.9
2017-Jun-23 00:00N 47°13' W 122°36'6 2.5
2017-Jun-22 21:42N 47°08' W 122°39'0 0.0
2017-Jun-22 21:16N 47°08' W 122°39'0 0.0
2017-Jun-22 20:46N 47°08' W 122°39'0 0.0
2017-Jun-22 20:28N 47°08' W 122°39'0 0.0
2017-Jun-22 20:00N 47°08' W 122°39'2 0.9
2017-Jun-22 17:58N 47°10' W 122°39'3 5.4
2017-Jun-22 17:22N 47°12' W 122°36'3 5.7
2017-Jun-22 16:48N 47°15' W 122°34'1 3.7
2017-Jun-22 16:30N 47°16' W 122°33'1 2.9
2017-Jun-22 16:00N 47°18' W 122°33'2 3.9
2017-Jun-22 15:30N 47°19' W 122°34'1 2.6
2017-Jun-22 15:00N 47°21' W 122°33'3 5.5
2017-Jun-22 14:30N 47°23' W 122°32'6 6.0
2017-Jun-22 13:30N 47°29' W 122°30'3 6.5
2017-Jun-22 13:00N 47°32' W 122°28'4 8.1
2017-Jun-22 12:30N 47°35' W 122°25'2 5.0
2017-Jun-22 12:00N 47°34' W 122°21'0 1.0
2017-Jun-22 11:31N 47°34' W 122°21'0 0.1
2017-Jun-22 11:00N 47°34' W 122°21'0 1.0
2017-Jun-22 10:30N 47°34' W 122°21'0 0.0
2017-Jun-22 10:00N 47°34' W 122°21'0 0.0
2017-Jun-22 09:30N 47°34' W 122°21'0 0.0
2017-Jun-22 09:00N 47°34' W 122°21'1 1.1
2017-Jun-22 08:30N 47°34' W 122°21'1 2.5
2017-Jun-22 08:00N 47°33' W 122°20'0 0.8
2017-Jun-22 07:31N 47°33' W 122°20'2 3.7
2017-Jun-22 07:00N 47°35' W 122°22'2 4.6
2017-Jun-22 06:30N 47°35' W 122°25'3 6.4
2017-Jun-22 06:00N 47°33' W 122°27'3 6.7
2017-Jun-22 05:30N 47°30' W 122°30'4 7.0
2017-Jun-22 05:00N 47°26' W 122°31'3 6.9
2017-Jun-22 04:30N 47°23' W 122°32'4 7.4
2017-Jun-22 04:00N 47°19' W 122°33'4 8.0
2017-Jun-22 03:30N 47°15' W 122°34'4 7.9
2017-Jun-22 03:00N 47°12' W 122°36'4 0.2
2017-Jun-21 06:50N 47°09' W 122°38'0 0.2
2017-Jun-21 06:30N 47°09' W 122°38'0 0.0
2017-Jun-21 05:59N 47°09' W 122°38'0 0.0
2017-Jun-21 05:30N 47°09' W 122°38'0 0.0
2017-Jun-21 04:58N 47°09' W 122°38'0 0.0
2017-Jun-21 04:30N 47°09' W 122°38'0 0.0
2017-Jun-21 04:00N 47°09' W 122°38'0 0.0
2017-Jun-21 03:30N 47°09' W 122°38'8 5.4
2017-Jun-21 02:03N 47°16' W 122°34'0 5.7
2017-Jun-21 01:59N 47°16' W 122°33'3 5.6
2017-Jun-21 01:29N 47°19' W 122°33'4 7.7
2017-Jun-21 01:00N 47°23' W 122°32'4 7.8
2017-Jun-21 00:30N 47°26' W 122°32'0 0.4
2017-Jun-21 00:00N 47°27' W 122°32'0 0.4
2017-Jun-20 23:30N 47°26' W 122°31'2 5.0
2017-Jun-20 23:00N 47°24' W 122°32'3 6.4
2017-Jun-20 22:30N 47°21' W 122°32'4 5.6
2017-Jun-20 21:46N 47°17' W 122°33'2 5.9
2017-Jun-20 21:30N 47°15' W 122°34'3 5.7
2017-Jun-20 20:59N 47°13' W 122°36'5 1.0
2017-Jun-20 15:56N 47°08' W 122°39'1 1.0
2017-Jun-20 15:21N 47°09' W 122°38'0 0.0
2017-Jun-20 15:00N 47°09' W 122°38'0 0.0
2017-Jun-20 14:29N 47°09' W 122°38'1 1.0
2017-Jun-20 13:08N 47°10' W 122°39'5 4.0
2017-Jun-20 11:50N 47°14' W 122°35'2 4.8
2017-Jun-20 11:29N 47°16' W 122°34'3 4.7
2017-Jun-20 10:51N 47°19' W 122°33'2 6.6
2017-Jun-20 10:30N 47°21' W 122°33'3 6.8
2017-Jun-20 10:00N 47°24' W 122°32'4 7.2
2017-Jun-20 09:30N 47°28' W 122°31'4 7.6
2017-Jun-20 09:01N 47°31' W 122°28'4 7.5
2017-Jun-20 08:30N 47°35' W 122°26'3 5.1
2017-Jun-20 08:00N 47°36' W 122°22'2 4.6
2017-Jun-20 07:30N 47°34' W 122°21'0 0.2
2017-Jun-20 07:00N 47°34' W 122°21'1 1.6
2017-Jun-20 06:30N 47°33' W 122°21'1 1.0
2017-Jun-20 06:00N 47°33' W 122°20'1 1.9
2017-Jun-20 05:30N 47°34' W 122°21'2 4.6
2017-Jun-20 05:00N 47°36' W 122°22'3 5.4
2017-Jun-20 04:30N 47°34' W 122°26'3 6.0
2017-Jun-20 04:00N 47°32' W 122°28'3 6.8
2017-Jun-20 03:30N 47°29' W 122°30'4 6.9
2017-Jun-20 03:00N 47°25' W 122°32'3 6.5
2017-Jun-20 02:30N 47°22' W 122°32'3 6.9
2017-Jun-20 02:00N 47°19' W 122°33'4 7.3
2017-Jun-20 01:30N 47°15' W 122°34'4 7.5
2017-Jun-20 01:00N 47°12' W 122°36'3 6.8
2017-Jun-20 00:30N 47°09' W 122°39'10 0.5
2017-Jun-19 03:14N 47°19' W 122°33'2 6.8
2017-Jun-19 02:59N 47°20' W 122°33'3 6.0
2017-Jun-19 02:30N 47°23' W 122°32'3 5.8
2017-Jun-19 02:00N 47°26' W 122°31'3 5.5
2017-Jun-19 01:30N 47°29' W 122°30'3 5.5
2017-Jun-19 01:00N 47°31' W 122°29'3 5.6
2017-Jun-19 00:30N 47°34' W 122°27'3 6.0
2017-Jun-19 00:00N 47°36' W 122°24'2 4.9
2017-Jun-18 23:30N 47°34' W 122°21'1 2.8
2017-Jun-18 22:59N 47°33' W 122°20'2 3.6
2017-Jun-18 22:30N 47°34' W 122°21'0 0.0
2017-Jun-18 22:00N 47°34' W 122°21'0 0.0
2017-Jun-18 21:30N 47°34' W 122°21'0 0.0
2017-Jun-18 21:01N 47°34' W 122°21'0 0.0
2017-Jun-18 20:30N 47°34' W 122°21'0 0.0
2017-Jun-18 20:00N 47°34' W 122°21'0 0.0
2017-Jun-18 19:30N 47°34' W 122°21'0 0.0
2017-Jun-18 19:00N 47°34' W 122°21'0 0.0
2017-Jun-18 18:30N 47°34' W 122°21'0 0.0
2017-Jun-18 18:00N 47°34' W 122°21'0 0.0
2017-Jun-18 17:30N 47°34' W 122°21'0 0.0
2017-Jun-18 17:00N 47°34' W 122°21'0 0.0
2017-Jun-18 16:30N 47°34' W 122°21'0 0.0
2017-Jun-18 16:00N 47°34' W 122°21'0 0.0
2017-Jun-18 15:30N 47°34' W 122°21'0 0.0
2017-Jun-18 15:00N 47°34' W 122°21'0 0.0
2017-Jun-18 14:00N 47°34' W 122°21'0 0.0
2017-Jun-18 13:30N 47°34' W 122°21'0 0.0
2017-Jun-18 13:00N 47°34' W 122°21'0 0.0
2017-Jun-18 12:30N 47°34' W 122°21'0 0.0
2017-Jun-18 12:00N 47°34' W 122°21'0 0.0
2017-Jun-18 11:30N 47°34' W 122°21'0 0.0
2017-Jun-18 11:00N 47°34' W 122°21'0 0.0
2017-Jun-18 10:30N 47°34' W 122°21'0 0.0
2017-Jun-18 10:00N 47°34' W 122°21'0 0.0
2017-Jun-18 09:30N 47°34' W 122°21'0 0.0
2017-Jun-18 09:00N 47°34' W 122°21'0 0.0
2017-Jun-18 08:30N 47°34' W 122°21'0 0.0
2017-Jun-18 08:00N 47°34' W 122°21'0 0.0
2017-Jun-18 07:30N 47°34' W 122°21'0 0.0
2017-Jun-18 07:00N 47°34' W 122°21'0 0.0
2017-Jun-18 06:30N 47°34' W 122°21'0 0.0
2017-Jun-18 06:00N 47°34' W 122°21'0 0.0
2017-Jun-18 05:30N 47°34' W 122°21'0 0.0
2017-Jun-18 05:00N 47°34' W 122°21'0 0.0
2017-Jun-18 04:30N 47°34' W 122°21'0 0.0
2017-Jun-18 04:00N 47°34' W 122°21'0 0.0
2017-Jun-18 03:30N 47°34' W 122°21'0 0.0
2017-Jun-18 03:00N 47°34' W 122°21'0 0.0
2017-Jun-18 02:30N 47°34' W 122°21'0 0.0
2017-Jun-18 02:00N 47°34' W 122°21'0 0.0
2017-Jun-18 01:30N 47°34' W 122°21'0 0.0
2017-Jun-18 01:00N 47°34' W 122°21'0 0.0
2017-Jun-18 00:30N 47°34' W 122°21'0 0.0
2017-Jun-18 00:00N 47°34' W 122°21'0 0.0
2017-Jun-17 23:30N 47°34' W 122°21'0 0.0
2017-Jun-17 23:00N 47°34' W 122°21'0 0.0
2017-Jun-17 22:30N 47°34' W 122°21'0 0.0
2017-Jun-17 22:00N 47°34' W 122°21'0 0.0
2017-Jun-17 21:30N 47°34' W 122°21'0 0.0
2017-Jun-17 21:00N 47°34' W 122°21'0 0.0
2017-Jun-17 20:30N 47°34' W 122°21'0 0.0
2017-Jun-17 20:00N 47°34' W 122°21'0 0.0
2017-Jun-17 19:30N 47°34' W 122°21'0 0.0
2017-Jun-17 19:00N 47°34' W 122°21'0 0.0
2017-Jun-17 18:30N 47°34' W 122°21'0 0.0
2017-Jun-17 18:00N 47°34' W 122°21'0 0.0
2017-Jun-17 17:30N 47°34' W 122°21'0 0.0
2017-Jun-17 17:00N 47°34' W 122°21'0 0.0
2017-Jun-17 16:30N 47°34' W 122°21'0 0.0
2017-Jun-17 16:00N 47°34' W 122°21'0 0.0
2017-Jun-17 15:30N 47°34' W 122°21'1 1.1
2017-Jun-17 15:00N 47°34' W 122°21'1 1.1
2017-Jun-17 14:31N 47°34' W 122°21'3 2.8
2017-Jun-17 13:30N 47°35' W 122°25'3 5.4
2017-Jun-17 13:00N 47°33' W 122°28'3 6.5
2017-Jun-17 12:30N 47°30' W 122°30'3 6.6
2017-Jun-17 12:00N 47°27' W 122°31'3 6.6
2017-Jun-17 11:29N 47°23' W 122°32'3 7.1
2017-Jun-17 11:00N 47°20' W 122°33'4 7.9
2017-Jun-17 10:30N 47°16' W 122°33'4 7.8
2017-Jun-17 10:00N 47°12' W 122°36'3 6.4
2017-Jun-17 09:30N 47°10' W 122°39'4 3.0
2017-Jun-17 08:04N 47°13' W 122°35'2 7.8
2017-Jun-17 07:50N 47°15' W 122°34'3 7.9
2017-Jun-17 07:28N 47°18' W 122°33'2 4.7
2017-Jun-17 07:00N 47°18' W 122°29'4 4.3
2017-Jun-17 06:09N 47°17' W 122°25'1 5.6
2017-Jun-17 05:55N 47°18' W 122°26'2 5.2
2017-Jun-17 05:30N 47°18' W 122°29'3 5.1
2017-Jun-17 05:00N 47°19' W 122°32'2 3.7
2017-Jun-17 04:24N 47°17' W 122°32'1 3.4
2017-Jun-17 04:00N 47°16' W 122°33'1 2.3
2017-Jun-17 03:27N 47°15' W 122°34'2 4.2
2017-Jun-17 02:56N 47°13' W 122°35'2 5.7
2017-Jun-17 02:30N 47°11' W 122°38'2 2.5
2017-Jun-17 01:33N 47°09' W 122°38'0 0.2
2017-Jun-17 01:30N 47°09' W 122°38'  

Dump ship's entire track history